sensor_id;sensor_type;location;lat;lon;timestamp;noise_LAeq;noise_LA_min;noise_LA_max;noise_LA01;noise_LA95
40103;Laerm;25814;48.550;9.108;2023-04-25T00:00:32;30.66;29.61;44.94;;
40103;Laerm;25814;48.550;9.108;2023-04-25T00:02:58;30.50;29.59;32.89;;
40103;Laerm;25814;48.550;9.108;2023-04-25T00:05:26;30.58;29.57;43.71;;
40103;Laerm;25814;48.550;9.108;2023-04-25T00:07:53;30.51;29.69;33.93;;
40103;Laerm;25814;48.550;9.108;2023-04-25T00:10:20;30.52;29.58;32.24;;
40103;Laerm;25814;48.550;9.108;2023-04-25T00:12:46;30.47;29.64;32.99;;
40103;Laerm;25814;48.550;9.108;2023-04-25T00:15:13;30.52;29.51;32.06;;
40103;Laerm;25814;48.550;9.108;2023-04-25T00:17:39;30.51;29.69;32.58;;
40103;Laerm;25814;48.550;9.108;2023-04-25T00:20:06;33.13;29.67;45.21;;
40103;Laerm;25814;48.550;9.108;2023-04-25T00:22:36;30.67;29.71;33.18;;
40103;Laerm;25814;48.550;9.108;2023-04-25T00:25:06;30.72;29.68;33.44;;
40103;Laerm;25814;48.550;9.108;2023-04-25T00:27:32;32.68;31.10;34.46;;
40103;Laerm;25814;48.550;9.108;2023-04-25T00:29:59;31.18;29.56;35.03;;
40103;Laerm;25814;48.550;9.108;2023-04-25T00:32:25;30.57;29.66;32.03;;
40103;Laerm;25814;48.550;9.108;2023-04-25T00:34:51;30.65;29.76;39.57;;
40103;Laerm;25814;48.550;9.108;2023-04-25T00:37:17;30.84;29.70;42.79;;
40103;Laerm;25814;48.550;9.108;2023-04-25T00:39:45;31.77;29.59;41.63;;
40103;Laerm;25814;48.550;9.108;2023-04-25T00:42:11;30.54;29.32;32.22;;
40103;Laerm;25814;48.550;9.108;2023-04-25T00:44:38;30.63;29.50;34.27;;
40103;Laerm;25814;48.550;9.108;2023-04-25T00:47:06;30.51;29.61;33.14;;
40103;Laerm;25814;48.550;9.108;2023-04-25T00:49:33;31.38;29.60;46.19;;
40103;Laerm;25814;48.550;9.108;2023-04-25T00:51:59;30.61;29.60;41.31;;
40103;Laerm;25814;48.550;9.108;2023-04-25T00:54:25;31.39;29.90;42.02;;
40103;Laerm;25814;48.550;9.108;2023-04-25T00:56:52;35.56;29.72;47.64;;
40103;Laerm;25814;48.550;9.108;2023-04-25T00:59:19;30.90;29.81;36.98;;
40103;Laerm;25814;48.550;9.108;2023-04-25T01:01:46;30.74;29.72;32.50;;
40103;Laerm;25814;48.550;9.108;2023-04-25T01:04:13;30.87;29.75;34.23;;
40103;Laerm;25814;48.550;9.108;2023-04-25T01:06:40;32.47;29.88;38.19;;
40103;Laerm;25814;48.550;9.108;2023-04-25T01:09:07;31.90;29.82;34.51;;
40103;Laerm;25814;48.550;9.108;2023-04-25T01:11:33;30.63;29.68;33.26;;
40103;Laerm;25814;48.550;9.108;2023-04-25T01:13:59;30.64;29.78;32.97;;
40103;Laerm;25814;48.550;9.108;2023-04-25T01:16:26;30.70;29.83;32.36;;
40103;Laerm;25814;48.550;9.108;2023-04-25T01:18:52;30.87;29.74;34.98;;
40103;Laerm;25814;48.550;9.108;2023-04-25T01:21:18;32.84;29.91;43.75;;
40103;Laerm;25814;48.550;9.108;2023-04-25T01:23:45;30.82;29.75;33.56;;
40103;Laerm;25814;48.550;9.108;2023-04-25T01:26:12;30.71;29.68;40.97;;
40103;Laerm;25814;48.550;9.108;2023-04-25T01:28:39;30.73;29.76;32.52;;
40103;Laerm;25814;48.550;9.108;2023-04-25T01:31:06;30.61;29.69;32.98;;
40103;Laerm;25814;48.550;9.108;2023-04-25T01:33:33;30.67;29.69;32.52;;
40103;Laerm;25814;48.550;9.108;2023-04-25T01:35:59;31.45;29.88;37.55;;
40103;Laerm;25814;48.550;9.108;2023-04-25T01:38:25;30.71;29.74;32.40;;
40103;Laerm;25814;48.550;9.108;2023-04-25T01:40:52;31.77;29.99;39.34;;
40103;Laerm;25814;48.550;9.108;2023-04-25T01:43:19;33.26;29.95;40.48;;
40103;Laerm;25814;48.550;9.108;2023-04-25T01:45:46;30.72;29.56;32.88;;
40103;Laerm;25814;48.550;9.108;2023-04-25T01:48:13;31.36;29.73;34.00;;
40103;Laerm;25814;48.550;9.108;2023-04-25T01:50:40;32.91;30.51;44.58;;
40103;Laerm;25814;48.550;9.108;2023-04-25T01:53:09;40.43;29.79;55.82;;
40103;Laerm;25814;48.550;9.108;2023-04-25T01:55:36;39.71;30.17;53.07;;
40103;Laerm;25814;48.550;9.108;2023-04-25T01:58:04;30.91;29.66;33.08;;
40103;Laerm;25814;48.550;9.108;2023-04-25T02:00:35;31.14;29.86;33.47;;
40103;Laerm;25814;48.550;9.108;2023-04-25T02:03:05;30.75;29.71;34.18;;
40103;Laerm;25814;48.550;9.108;2023-04-25T02:05:38;30.68;29.72;32.32;;
40103;Laerm;25814;48.550;9.108;2023-04-25T02:08:06;32.78;29.74;46.11;;
40103;Laerm;25814;48.550;9.108;2023-04-25T02:10:34;30.74;29.76;34.89;;
40103;Laerm;25814;48.550;9.108;2023-04-25T02:13:00;30.60;29.59;32.40;;
40103;Laerm;25814;48.550;9.108;2023-04-25T02:15:27;30.83;29.79;34.32;;
40103;Laerm;25814;48.550;9.108;2023-04-25T02:17:53;30.58;29.64;32.60;;
40103;Laerm;25814;48.550;9.108;2023-04-25T02:20:21;30.67;29.65;33.31;;
40103;Laerm;25814;48.550;9.108;2023-04-25T02:22:48;30.69;29.65;32.78;;
40103;Laerm;25814;48.550;9.108;2023-04-25T02:25:14;30.70;29.70;32.27;;
40103;Laerm;25814;48.550;9.108;2023-04-25T02:27:42;30.64;29.68;34.10;;
40103;Laerm;25814;48.550;9.108;2023-04-25T02:30:08;32.23;29.60;35.24;;
40103;Laerm;25814;48.550;9.108;2023-04-25T02:32:35;32.18;29.71;34.39;;
40103;Laerm;25814;48.550;9.108;2023-04-25T02:35:01;30.78;29.82;33.17;;
40103;Laerm;25814;48.550;9.108;2023-04-25T02:37:36;30.73;29.68;32.48;;
40103;Laerm;25814;48.550;9.108;2023-04-25T02:40:03;31.24;29.92;47.04;;
40103;Laerm;25814;48.550;9.108;2023-04-25T02:42:30;32.25;30.44;37.44;;
40103;Laerm;25814;48.550;9.108;2023-04-25T02:44:56;31.25;30.10;40.34;;
40103;Laerm;25814;48.550;9.108;2023-04-25T02:47:22;31.00;30.10;33.52;;
40103;Laerm;25814;48.550;9.108;2023-04-25T02:49:49;31.32;29.97;33.82;;
40103;Laerm;25814;48.550;9.108;2023-04-25T02:52:15;31.18;29.93;36.41;;
40103;Laerm;25814;48.550;9.108;2023-04-25T02:54:41;31.22;29.98;40.16;;
40103;Laerm;25814;48.550;9.108;2023-04-25T02:57:07;32.45;30.13;44.53;;
40103;Laerm;25814;48.550;9.108;2023-04-25T02:59:34;31.69;30.30;36.05;;
40103;Laerm;25814;48.550;9.108;2023-04-25T03:02:00;31.56;30.17;43.34;;
40103;Laerm;25814;48.550;9.108;2023-04-25T03:04:27;31.51;30.30;34.49;;
40103;Laerm;25814;48.550;9.108;2023-04-25T03:06:53;31.71;30.61;39.49;;
40103;Laerm;25814;48.550;9.108;2023-04-25T03:09:19;33.36;30.78;43.77;;
40103;Laerm;25814;48.550;9.108;2023-04-25T03:11:46;33.12;30.74;45.78;;
40103;Laerm;25814;48.550;9.108;2023-04-25T03:14:13;34.26;32.10;41.66;;
40103;Laerm;25814;48.550;9.108;2023-04-25T03:16:39;33.46;31.32;38.54;;
40103;Laerm;25814;48.550;9.108;2023-04-25T03:19:05;37.96;32.38;52.59;;
40103;Laerm;25814;48.550;9.108;2023-04-25T03:21:34;35.48;31.73;47.71;;
40103;Laerm;25814;48.550;9.108;2023-04-25T03:24:03;33.98;31.19;46.56;;
40103;Laerm;25814;48.550;9.108;2023-04-25T03:26:29;44.61;33.08;64.98;;
40103;Laerm;25814;48.550;9.108;2023-04-25T03:28:55;46.66;32.21;69.95;;
40103;Laerm;25814;48.550;9.108;2023-04-25T03:31:22;54.38;31.33;75.63;;
40103;Laerm;25814;48.550;9.108;2023-04-25T03:33:48;54.46;31.55;72.35;;
40103;Laerm;25814;48.550;9.108;2023-04-25T03:36:14;52.86;32.51;63.98;;
40103;Laerm;25814;48.550;9.108;2023-04-25T03:38:40;53.25;31.72;65.49;;
40103;Laerm;25814;48.550;9.108;2023-04-25T03:41:07;54.02;33.27;66.32;;
40103;Laerm;25814;48.550;9.108;2023-04-25T03:43:34;51.67;32.51;68.86;;
40103;Laerm;25814;48.550;9.108;2023-04-25T03:46:00;52.72;33.26;65.13;;
40103;Laerm;25814;48.550;9.108;2023-04-25T03:48:27;54.66;32.21;65.29;;
40103;Laerm;25814;48.550;9.108;2023-04-25T03:50:54;53.98;31.99;64.62;;
40103;Laerm;25814;48.550;9.108;2023-04-25T03:53:20;43.08;31.73;60.58;;
40103;Laerm;25814;48.550;9.108;2023-04-25T03:55:47;53.65;32.65;68.87;;
40103;Laerm;25814;48.550;9.108;2023-04-25T03:58:13;40.31;32.25;56.00;;
40103;Laerm;25814;48.550;9.108;2023-04-25T04:00:39;47.39;31.95;60.87;;
40103;Laerm;25814;48.550;9.108;2023-04-25T04:03:05;45.09;32.26;58.98;;
40103;Laerm;25814;48.550;9.108;2023-04-25T04:05:32;42.49;31.81;59.84;;
40103;Laerm;25814;48.550;9.108;2023-04-25T04:07:58;46.99;31.98;62.98;;
40103;Laerm;25814;48.550;9.108;2023-04-25T04:10:24;37.61;31.98;49.72;;
40103;Laerm;25814;48.550;9.108;2023-04-25T04:12:51;45.68;32.31;63.08;;
40103;Laerm;25814;48.550;9.108;2023-04-25T04:15:17;43.66;32.35;63.08;;
40103;Laerm;25814;48.550;9.108;2023-04-25T04:17:44;41.62;32.33;58.43;;
40103;Laerm;25814;48.550;9.108;2023-04-25T04:20:10;42.51;33.21;56.25;;
40103;Laerm;25814;48.550;9.108;2023-04-25T04:22:37;42.61;32.21;53.08;;
40103;Laerm;25814;48.550;9.108;2023-04-25T04:25:03;36.28;32.84;44.53;;
40103;Laerm;25814;48.550;9.108;2023-04-25T04:27:31;40.51;33.86;49.19;;
40103;Laerm;25814;48.550;9.108;2023-04-25T04:29:58;44.99;34.81;54.76;;
40103;Laerm;25814;48.550;9.108;2023-04-25T04:32:24;39.39;32.30;50.35;;
40103;Laerm;25814;48.550;9.108;2023-04-25T04:34:50;43.11;33.66;55.47;;
40103;Laerm;25814;48.550;9.108;2023-04-25T04:37:17;37.04;32.77;47.88;;
40103;Laerm;25814;48.550;9.108;2023-04-25T04:39:45;35.63;31.92;46.52;;
40103;Laerm;25814;48.550;9.108;2023-04-25T04:42:11;37.70;34.11;44.09;;
40103;Laerm;25814;48.550;9.108;2023-04-25T04:44:37;39.25;33.59;50.78;;
40103;Laerm;25814;48.550;9.108;2023-04-25T04:47:05;41.52;33.91;51.39;;
40103;Laerm;25814;48.550;9.108;2023-04-25T04:49:32;43.43;34.18;56.28;;
40103;Laerm;25814;48.550;9.108;2023-04-25T04:51:58;45.69;33.49;64.22;;
40103;Laerm;25814;48.550;9.108;2023-04-25T04:54:26;40.52;33.81;51.06;;
40103;Laerm;25814;48.550;9.108;2023-04-25T04:56:52;42.69;34.11;52.79;;
40103;Laerm;25814;48.550;9.108;2023-04-25T04:59:18;51.12;33.65;64.10;;
40103;Laerm;25814;48.550;9.108;2023-04-25T05:01:45;43.46;33.58;52.79;;
40103;Laerm;25814;48.550;9.108;2023-04-25T05:04:12;38.02;33.29;48.68;;
40103;Laerm;25814;48.550;9.108;2023-04-25T05:06:38;38.34;32.68;51.09;;
40103;Laerm;25814;48.550;9.108;2023-04-25T05:09:04;43.41;34.10;55.56;;
40103;Laerm;25814;48.550;9.108;2023-04-25T05:11:30;41.15;33.05;53.14;;
40103;Laerm;25814;48.550;9.108;2023-04-25T05:13:57;42.23;33.00;50.44;;
40103;Laerm;25814;48.550;9.108;2023-04-25T05:16:23;47.22;35.04;55.45;;
40103;Laerm;25814;48.550;9.108;2023-04-25T05:18:49;50.54;39.87;66.02;;
40103;Laerm;25814;48.550;9.108;2023-04-25T05:21:15;44.61;38.77;53.67;;
40103;Laerm;25814;48.550;9.108;2023-04-25T05:23:42;46.98;39.95;53.96;;
40103;Laerm;25814;48.550;9.108;2023-04-25T05:26:08;42.11;36.51;51.90;;
40103;Laerm;25814;48.550;9.108;2023-04-25T05:28:40;43.85;33.57;65.75;;
40103;Laerm;25814;48.550;9.108;2023-04-25T05:31:07;42.64;33.88;61.02;;
40103;Laerm;25814;48.550;9.108;2023-04-25T05:33:33;41.16;34.44;53.90;;
40103;Laerm;25814;48.550;9.108;2023-04-25T05:36:00;45.46;34.99;53.96;;
40103;Laerm;25814;48.550;9.108;2023-04-25T05:38:26;43.90;34.23;58.79;;
40103;Laerm;25814;48.550;9.108;2023-04-25T05:40:52;44.92;35.17;56.22;;
40103;Laerm;25814;48.550;9.108;2023-04-25T05:43:18;45.53;34.88;59.13;;
40103;Laerm;25814;48.550;9.108;2023-04-25T05:45:45;43.27;33.76;54.82;;
40103;Laerm;25814;48.550;9.108;2023-04-25T05:48:11;40.32;33.10;50.20;;
40103;Laerm;25814;48.550;9.108;2023-04-25T05:50:37;45.35;32.03;61.49;;
40103;Laerm;25814;48.550;9.108;2023-04-25T05:53:03;41.69;33.07;58.11;;
40103;Laerm;25814;48.550;9.108;2023-04-25T05:55:31;42.98;32.09;54.20;;
40103;Laerm;25814;48.550;9.108;2023-04-25T05:57:57;39.58;32.08;54.03;;
40103;Laerm;25814;48.550;9.108;2023-04-25T06:00:23;49.86;32.09;70.47;;
40103;Laerm;25814;48.550;9.108;2023-04-25T06:02:50;46.37;30.79;66.36;;
40103;Laerm;25814;48.550;9.108;2023-04-25T06:05:16;39.18;31.48;50.47;;
40103;Laerm;25814;48.550;9.108;2023-04-25T06:07:42;42.17;32.30;68.45;;
40103;Laerm;25814;48.550;9.108;2023-04-25T06:10:09;41.08;31.95;52.20;;
40103;Laerm;25814;48.550;9.108;2023-04-25T06:12:35;38.72;31.36;48.78;;
40103;Laerm;25814;48.550;9.108;2023-04-25T06:15:01;39.57;31.51;56.15;;
40103;Laerm;25814;48.550;9.108;2023-04-25T06:17:27;34.57;30.31;46.22;;
40103;Laerm;25814;48.550;9.108;2023-04-25T06:19:53;37.78;31.21;49.62;;
40103;Laerm;25814;48.550;9.108;2023-04-25T06:22:20;39.72;30.27;49.93;;
40103;Laerm;25814;48.550;9.108;2023-04-25T06:24:46;37.78;30.29;51.42;;
40103;Laerm;25814;48.550;9.108;2023-04-25T06:27:12;40.30;30.16;49.76;;
40103;Laerm;25814;48.550;9.108;2023-04-25T06:29:38;37.90;30.45;48.05;;
40103;Laerm;25814;48.550;9.108;2023-04-25T06:32:05;39.06;30.15;47.63;;
40103;Laerm;25814;48.550;9.108;2023-04-25T06:34:31;39.37;32.12;52.29;;
40103;Laerm;25814;48.550;9.108;2023-04-25T06:36:57;38.90;30.31;52.15;;
40103;Laerm;25814;48.550;9.108;2023-04-25T06:39:23;42.66;30.43;62.32;;
40103;Laerm;25814;48.550;9.108;2023-04-25T06:41:50;40.34;30.62;56.74;;
40103;Laerm;25814;48.550;9.108;2023-04-25T06:44:17;47.06;30.05;60.60;;
40103;Laerm;25814;48.550;9.108;2023-04-25T06:46:43;39.72;29.81;51.03;;
40103;Laerm;25814;48.550;9.108;2023-04-25T06:49:09;44.91;32.26;65.20;;
40103;Laerm;25814;48.550;9.108;2023-04-25T06:51:35;47.62;32.61;58.79;;
40103;Laerm;25814;48.550;9.108;2023-04-25T06:54:02;45.21;32.02;58.02;;
40103;Laerm;25814;48.550;9.108;2023-04-25T06:56:29;40.46;33.16;49.21;;
40103;Laerm;25814;48.550;9.108;2023-04-25T06:58:56;39.14;31.06;49.60;;
40103;Laerm;25814;48.550;9.108;2023-04-25T07:01:22;34.62;30.70;51.01;;
40103;Laerm;25814;48.550;9.108;2023-04-25T07:03:49;38.83;31.28;52.68;;
40103;Laerm;25814;48.550;9.108;2023-04-25T07:06:15;38.37;32.77;48.19;;
40103;Laerm;25814;48.550;9.108;2023-04-25T07:08:42;38.32;31.49;47.23;;
40103;Laerm;25814;48.550;9.108;2023-04-25T07:11:08;37.98;31.65;49.81;;
40103;Laerm;25814;48.550;9.108;2023-04-25T07:13:34;37.72;33.03;47.83;;
40103;Laerm;25814;48.550;9.108;2023-04-25T07:16:01;41.39;34.33;51.00;;
40103;Laerm;25814;48.550;9.108;2023-04-25T07:18:28;39.95;35.89;51.20;;
40103;Laerm;25814;48.550;9.108;2023-04-25T07:20:54;40.97;35.55;53.34;;
40103;Laerm;25814;48.550;9.108;2023-04-25T07:23:20;51.67;34.89;66.47;;
40103;Laerm;25814;48.550;9.108;2023-04-25T07:25:47;53.17;35.54;66.20;;
40103;Laerm;25814;48.550;9.108;2023-04-25T07:28:13;46.04;36.75;65.37;;
40103;Laerm;25814;48.550;9.108;2023-04-25T07:30:39;53.06;36.80;66.87;;
40103;Laerm;25814;48.550;9.108;2023-04-25T07:33:05;52.14;36.87;66.99;;
40103;Laerm;25814;48.550;9.108;2023-04-25T07:35:31;43.77;36.14;57.83;;
40103;Laerm;25814;48.550;9.108;2023-04-25T07:37:58;47.84;39.59;64.43;;
40103;Laerm;25814;48.550;9.108;2023-04-25T07:40:24;51.48;39.08;65.54;;
40103;Laerm;25814;48.550;9.108;2023-04-25T07:42:50;43.05;36.88;57.21;;
40103;Laerm;25814;48.550;9.108;2023-04-25T07:45:17;41.91;35.54;50.53;;
40103;Laerm;25814;48.550;9.108;2023-04-25T07:47:43;41.95;35.05;52.55;;
40103;Laerm;25814;48.550;9.108;2023-04-25T07:50:10;41.58;35.67;53.78;;
40103;Laerm;25814;48.550;9.108;2023-04-25T07:52:36;40.23;33.16;52.81;;
40103;Laerm;25814;48.550;9.108;2023-04-25T07:55:03;39.53;33.47;54.50;;
40103;Laerm;25814;48.550;9.108;2023-04-25T07:57:29;40.24;34.66;53.29;;
40103;Laerm;25814;48.550;9.108;2023-04-25T07:59:55;39.38;35.44;55.13;;
40103;Laerm;25814;48.550;9.108;2023-04-25T08:02:22;39.46;33.94;53.19;;
40103;Laerm;25814;48.550;9.108;2023-04-25T08:04:48;37.59;34.25;51.79;;
40103;Laerm;25814;48.550;9.108;2023-04-25T08:07:15;37.86;34.58;54.08;;
40103;Laerm;25814;48.550;9.108;2023-04-25T08:09:41;40.93;34.03;58.66;;
40103;Laerm;25814;48.550;9.108;2023-04-25T08:12:07;36.61;32.30;48.81;;
40103;Laerm;25814;48.550;9.108;2023-04-25T08:14:34;40.73;33.29;59.95;;
40103;Laerm;25814;48.550;9.108;2023-04-25T08:17:05;37.37;33.64;51.00;;
40103;Laerm;25814;48.550;9.108;2023-04-25T08:19:31;37.58;35.02;47.01;;
40103;Laerm;25814;48.550;9.108;2023-04-25T08:21:57;40.67;35.58;51.04;;
40103;Laerm;25814;48.550;9.108;2023-04-25T08:24:24;39.74;36.69;53.35;;
40103;Laerm;25814;48.550;9.108;2023-04-25T08:26:51;42.08;37.21;54.99;;
40103;Laerm;25814;48.550;9.108;2023-04-25T08:29:17;48.84;36.19;64.39;;
40103;Laerm;25814;48.550;9.108;2023-04-25T08:31:44;49.08;36.70;65.25;;
40103;Laerm;25814;48.550;9.108;2023-04-25T08:34:10;52.68;37.58;66.40;;
40103;Laerm;25814;48.550;9.108;2023-04-25T08:36:37;43.57;37.77;61.95;;
40103;Laerm;25814;48.550;9.108;2023-04-25T08:39:03;42.07;38.53;57.09;;
40103;Laerm;25814;48.550;9.108;2023-04-25T08:41:30;41.25;38.00;56.28;;
40103;Laerm;25814;48.550;9.108;2023-04-25T08:43:56;41.89;38.10;56.20;;
40103;Laerm;25814;48.550;9.108;2023-04-25T08:46:25;43.87;39.94;57.83;;
40103;Laerm;25814;48.550;9.108;2023-04-25T08:48:53;42.85;38.96;56.32;;
40103;Laerm;25814;48.550;9.108;2023-04-25T08:51:24;58.34;39.12;80.69;;
40103;Laerm;25814;48.550;9.108;2023-04-25T08:53:53;47.54;39.15;60.23;;
40103;Laerm;25814;48.550;9.108;2023-04-25T08:56:20;47.11;39.30;63.06;;
40103;Laerm;25814;48.550;9.108;2023-04-25T08:58:49;45.97;40.65;58.70;;
40103;Laerm;25814;48.550;9.108;2023-04-25T09:01:18;44.28;40.23;58.40;;
40103;Laerm;25814;48.550;9.108;2023-04-25T09:03:45;46.49;42.54;58.95;;
40103;Laerm;25814;48.550;9.108;2023-04-25T09:06:12;47.37;43.77;58.42;;
40103;Laerm;25814;48.550;9.108;2023-04-25T09:08:39;48.54;45.84;58.25;;
40103;Laerm;25814;48.550;9.108;2023-04-25T09:11:07;47.39;43.47;58.78;;
40103;Laerm;25814;48.550;9.108;2023-04-25T09:13:33;47.43;43.67;59.65;;
40103;Laerm;25814;48.550;9.108;2023-04-25T09:15:59;46.80;43.92;58.13;;
40103;Laerm;25814;48.550;9.108;2023-04-25T09:18:31;47.26;44.58;58.62;;
40103;Laerm;25814;48.550;9.108;2023-04-25T09:21:12;45.87;42.61;58.83;;
40103;Laerm;25814;48.550;9.108;2023-04-25T09:23:45;44.70;42.08;58.82;;
40103;Laerm;25814;48.550;9.108;2023-04-25T09:26:19;42.94;40.39;51.73;;
40103;Laerm;25814;48.550;9.108;2023-04-25T09:28:45;45.38;39.50;65.43;;
40103;Laerm;25814;48.550;9.108;2023-04-25T09:31:24;43.12;37.62;60.74;;
40103;Laerm;25814;48.550;9.108;2023-04-25T09:34:01;44.47;38.02;63.92;;
40103;Laerm;25814;48.550;9.108;2023-04-25T09:36:30;46.95;41.39;61.72;;
40103;Laerm;25814;48.550;9.108;2023-04-25T09:38:56;49.19;43.94;63.90;;
40103;Laerm;25814;48.550;9.108;2023-04-25T09:41:26;48.57;44.19;59.77;;
40103;Laerm;25814;48.550;9.108;2023-04-25T09:43:57;48.06;43.26;62.99;;
40103;Laerm;25814;48.550;9.108;2023-04-25T09:46:24;48.75;41.30;66.02;;
40103;Laerm;25814;48.550;9.108;2023-04-25T09:48:50;52.14;45.32;67.55;;
40103;Laerm;25814;48.550;9.108;2023-04-25T09:51:19;48.87;44.97;62.71;;
40103;Laerm;25814;48.550;9.108;2023-04-25T09:53:46;47.21;42.52;57.48;;
40103;Laerm;25814;48.550;9.108;2023-04-25T09:56:16;45.92;38.73;59.11;;
40103;Laerm;25814;48.550;9.108;2023-04-25T09:58:42;44.09;37.13;57.30;;
40103;Laerm;25814;48.550;9.108;2023-04-25T10:01:10;44.66;39.93;57.43;;
40103;Laerm;25814;48.550;9.108;2023-04-25T10:03:38;44.19;40.58;58.00;;
40103;Laerm;25814;48.550;9.108;2023-04-25T10:06:12;47.44;41.33;72.69;;
40103;Laerm;25814;48.550;9.108;2023-04-25T10:08:40;45.40;41.25;56.78;;
40103;Laerm;25814;48.550;9.108;2023-04-25T10:11:09;44.36;40.52;58.93;;
40103;Laerm;25814;48.550;9.108;2023-04-25T10:13:36;45.31;41.66;56.70;;
40103;Laerm;25814;48.550;9.108;2023-04-25T10:16:04;46.90;42.78;58.95;;
40103;Laerm;25814;48.550;9.108;2023-04-25T10:18:32;47.24;43.91;58.55;;
40103;Laerm;25814;48.550;9.108;2023-04-25T10:21:01;48.84;45.07;59.52;;
40103;Laerm;25814;48.550;9.108;2023-04-25T10:23:31;48.75;44.69;62.63;;
40103;Laerm;25814;48.550;9.108;2023-04-25T10:25:58;48.20;43.87;59.96;;
40103;Laerm;25814;48.550;9.108;2023-04-25T10:28:25;52.51;44.76;64.55;;
40103;Laerm;25814;48.550;9.108;2023-04-25T10:31:07;51.79;46.58;63.88;;
40103;Laerm;25814;48.550;9.108;2023-04-25T10:33:39;51.30;45.27;66.63;;
40103;Laerm;25814;48.550;9.108;2023-04-25T10:36:33;47.64;42.84;59.74;;
40103;Laerm;25814;48.550;9.108;2023-04-25T10:39:05;46.48;41.52;63.96;;
40103;Laerm;25814;48.550;9.108;2023-04-25T10:41:52;43.80;40.21;56.51;;
40103;Laerm;25814;48.550;9.108;2023-04-25T10:44:18;46.42;41.05;67.69;;
40103;Laerm;25814;48.550;9.108;2023-04-25T10:46:45;49.73;40.24;71.72;;
40103;Laerm;25814;48.550;9.108;2023-04-25T10:49:41;44.49;39.77;59.88;;
40103;Laerm;25814;48.550;9.108;2023-04-25T10:52:19;42.47;38.20;58.77;;
40103;Laerm;25814;48.550;9.108;2023-04-25T10:54:55;47.90;38.52;61.75;;
40103;Laerm;25814;48.550;9.108;2023-04-25T10:57:40;44.41;38.15;56.44;;
40103;Laerm;25814;48.550;9.108;2023-04-25T11:00:15;40.67;36.76;49.55;;
40103;Laerm;25814;48.550;9.108;2023-04-25T11:02:52;55.81;36.12;80.43;;
40103;Laerm;25814;48.550;9.108;2023-04-25T11:05:35;42.13;34.99;62.22;;
40103;Laerm;25814;48.550;9.108;2023-04-25T11:08:02;38.90;35.38;50.87;;
40103;Laerm;25814;48.550;9.108;2023-04-25T11:10:36;40.96;35.37;58.32;;
40103;Laerm;25814;48.550;9.108;2023-04-25T11:13:03;44.02;37.03;61.23;;
40103;Laerm;25814;48.550;9.108;2023-04-25T11:15:30;42.48;36.21;62.09;;
40103;Laerm;25814;48.550;9.108;2023-04-25T11:17:56;41.58;36.54;52.19;;
40103;Laerm;25814;48.550;9.108;2023-04-25T11:20:25;46.06;38.95;66.27;;
40103;Laerm;25814;48.550;9.108;2023-04-25T11:22:58;44.91;40.60;55.41;;
40103;Laerm;25814;48.550;9.108;2023-04-25T11:25:25;46.62;39.77;64.14;;
40103;Laerm;25814;48.550;9.108;2023-04-25T11:27:57;43.22;38.64;57.69;;
40103;Laerm;25814;48.550;9.108;2023-04-25T11:30:25;49.57;38.55;70.98;;
40103;Laerm;25814;48.550;9.108;2023-04-25T11:32:52;41.05;37.20;57.62;;
40103;Laerm;25814;48.550;9.108;2023-04-25T11:35:19;40.07;36.43;53.77;;
40103;Laerm;25814;48.550;9.108;2023-04-25T11:37:48;40.31;34.88;48.98;;
40103;Laerm;25814;48.550;9.108;2023-04-25T11:40:15;46.87;34.81;68.40;;
40103;Laerm;25814;48.550;9.108;2023-04-25T11:42:46;51.95;33.31;71.95;;
40103;Laerm;25814;48.550;9.108;2023-04-25T11:45:14;55.03;34.60;67.65;;
40103;Laerm;25814;48.550;9.108;2023-04-25T11:47:40;52.89;32.96;66.93;;
40103;Laerm;25814;48.550;9.108;2023-04-25T11:50:08;51.01;32.46;67.59;;
40103;Laerm;25814;48.550;9.108;2023-04-25T11:52:43;42.75;32.15;51.52;;
40103;Laerm;25814;48.550;9.108;2023-04-25T11:55:14;42.76;31.52;58.71;;
40103;Laerm;25814;48.550;9.108;2023-04-25T11:57:43;51.77;32.18;67.81;;
40103;Laerm;25814;48.550;9.108;2023-04-25T12:00:16;55.11;32.39;68.61;;
40103;Laerm;25814;48.550;9.108;2023-04-25T12:02:50;54.28;31.26;67.02;;
40103;Laerm;25814;48.550;9.108;2023-04-25T12:05:16;48.42;30.33;64.93;;
40103;Laerm;25814;48.550;9.108;2023-04-25T12:07:43;39.56;30.55;49.85;;
40103;Laerm;25814;48.550;9.108;2023-04-25T12:10:18;39.06;31.06;50.72;;
40103;Laerm;25814;48.550;9.108;2023-04-25T12:12:47;37.59;31.10;54.09;;
40103;Laerm;25814;48.550;9.108;2023-04-25T12:15:16;43.14;31.28;58.11;;
40103;Laerm;25814;48.550;9.108;2023-04-25T12:17:47;40.38;31.98;54.87;;
40103;Laerm;25814;48.550;9.108;2023-04-25T12:20:34;40.73;32.38;50.53;;
40103;Laerm;25814;48.550;9.108;2023-04-25T12:23:06;42.33;31.62;63.74;;
40103;Laerm;25814;48.550;9.108;2023-04-25T12:25:37;48.00;31.53;61.51;;
40103;Laerm;25814;48.550;9.108;2023-04-25T12:28:23;39.54;32.65;53.88;;
40103;Laerm;25814;48.550;9.108;2023-04-25T12:33:32;39.08;32.28;55.45;;
40103;Laerm;25814;48.550;9.108;2023-04-25T12:36:00;39.39;32.19;55.30;;
40103;Laerm;25814;48.550;9.108;2023-04-25T12:38:37;35.44;30.46;51.42;;
40103;Laerm;25814;48.550;9.108;2023-04-25T12:41:04;43.75;30.43;64.26;;
40103;Laerm;25814;48.550;9.108;2023-04-25T12:43:31;41.61;30.85;57.70;;
40103;Laerm;25814;48.550;9.108;2023-04-25T12:45:57;42.23;30.90;57.03;;
40103;Laerm;25814;48.550;9.108;2023-04-25T12:48:23;44.45;30.60;59.44;;
40103;Laerm;25814;48.550;9.108;2023-04-25T12:50:51;39.06;30.11;52.25;;
40103;Laerm;25814;48.550;9.108;2023-04-25T12:53:19;38.25;30.27;50.08;;
40103;Laerm;25814;48.550;9.108;2023-04-25T12:55:46;42.79;30.10;63.59;;
40103;Laerm;25814;48.550;9.108;2023-04-25T12:58:18;42.61;30.24;64.39;;
40103;Laerm;25814;48.550;9.108;2023-04-25T13:00:45;33.85;29.83;48.60;;
40103;Laerm;25814;48.550;9.108;2023-04-25T13:03:11;44.04;30.75;58.49;;
40103;Laerm;25814;48.550;9.108;2023-04-25T13:05:38;39.79;30.11;56.64;;
40103;Laerm;25814;48.550;9.108;2023-04-25T13:08:05;37.17;31.08;50.80;;
40103;Laerm;25814;48.550;9.108;2023-04-25T13:10:31;34.34;29.80;49.78;;
40103;Laerm;25814;48.550;9.108;2023-04-25T13:12:59;40.71;30.23;53.98;;
40103;Laerm;25814;48.550;9.108;2023-04-25T13:15:27;38.53;30.02;52.40;;
40103;Laerm;25814;48.550;9.108;2023-04-25T13:17:53;50.39;31.35;66.77;;
40103;Laerm;25814;48.550;9.108;2023-04-25T13:20:19;52.70;30.49;70.78;;
40103;Laerm;25814;48.550;9.108;2023-04-25T13:22:48;40.76;30.23;51.90;;
40103;Laerm;25814;48.550;9.108;2023-04-25T13:25:14;41.65;29.95;53.08;;
40103;Laerm;25814;48.550;9.108;2023-04-25T13:27:41;38.61;31.23;48.04;;
40103;Laerm;25814;48.550;9.108;2023-04-25T13:30:10;39.16;31.53;50.23;;
40103;Laerm;25814;48.550;9.108;2023-04-25T13:32:37;38.16;30.55;48.77;;
40103;Laerm;25814;48.550;9.108;2023-04-25T13:35:06;35.62;29.99;46.38;;
40103;Laerm;25814;48.550;9.108;2023-04-25T13:37:33;40.33;29.86;55.51;;
40103;Laerm;25814;48.550;9.108;2023-04-25T13:40:09;48.38;32.68;67.56;;
40103;Laerm;25814;48.550;9.108;2023-04-25T13:42:37;44.44;30.24;61.93;;
40103;Laerm;25814;48.550;9.108;2023-04-25T13:45:04;42.78;30.48;54.92;;
40103;Laerm;25814;48.550;9.108;2023-04-25T13:47:31;45.17;30.41;64.59;;
40103;Laerm;25814;48.550;9.108;2023-04-25T13:49:57;44.97;29.59;67.55;;